Schedule Details


Flight Number: CTN531
Departure: Pulkovo (ULLI) at 18:50
Arrival: Franjo Tudman (LDZA) at 20:45
Route: TURAL?B141?RANVA?P863?RESMO?M155?VALGA?M985?BOKSU?M857?SUW?M985?EVINA?N744?TUSIN?M984?MIKOV?DCT?WGM?DCT?PETOV

Weather Information
ULLI 242100Z 24002MPS 9999 FEW046 14/09 Q1027 R28L/090060 NOSIG
LDZA 242100Z 33002KT CAVOK 22/18 Q1021 NOSIG
Schedule Frequency

Route Map